Time;durP1;ratioP1;P1;durP2;ratioP2;P2;SDS_P1;SDS_P2;PMS_P1;PMS_P2;Temp;Humidity;BMP_temperature;BMP_pressure;BME280_temperature;BME280_humidity;BME280_pressure;Samples;Min_cycle;Max_cycle;Signal;HPM_P1;HPM_P2
2022/08/20 00:01:09;;;;;;;10.23;7.22;;;20.40;80.50;;;;;;5032475;28;20138;-70
2022/08/20 00:03:39;;;;;;;10.57;6.80;;;20.50;80.50;;;;;;5014675;28;20049;-70
2022/08/20 00:06:09;;;;;;;11.90;7.07;;;20.40;80.50;;;;;;5014847;28;20132;-70
2022/08/20 00:08:38;;;;;;;8.20;6.50;;;20.30;80.40;;;;;;5014243;28;20389;-70
2022/08/20 00:11:09;;;;;;;10.32;6.63;;;20.30;80.40;;;;;;5031966;28;21043;-70
2022/08/20 00:13:39;;;;;;;11.25;6.47;;;20.30;80.40;;;;;;5032742;28;20064;-70
2022/08/20 00:16:08;;;;;;;10.82;6.72;;;20.30;80.50;;;;;;5032527;28;20077;-70
2022/08/20 00:18:36;;;;;;;9.77;5.90;;;20.30;80.50;;;;;;5030518;28;20053;-70
2022/08/20 00:21:07;;;;;;;9.48;6.25;;;20.30;80.50;;;;;;5014703;28;20715;-70
2022/08/20 00:23:37;;;;;;;10.68;6.22;;;20.20;80.70;;;;;;4998119;28;20587;-70
2022/08/20 00:26:04;;;;;;;9.68;5.88;;;20.10;80.60;;;;;;5014658;28;20057;-70
2022/08/20 00:28:30;;;;;;;11.40;5.45;;;20.10;80.70;;;;;;5014271;28;20124;-70
2022/08/20 00:30:58;;;;;;;8.37;5.20;;;20.10;80.70;;;;;;5013939;28;20512;-70
2022/08/20 00:33:25;;;;;;;10.35;6.03;;;20.10;80.70;;;;;;5014268;28;20265;-70
2022/08/20 00:35:55;;;;;;;11.82;5.70;;;20.10;80.70;;;;;;5014575;28;20061;-70
2022/08/20 00:38:23;;;;;;;8.73;5.38;;;20.00;80.70;;;;;;5014503;28;20133;-70
2022/08/20 00:40:54;;;;;;;9.85;5.70;;;20.00;80.70;;;;;;5014493;28;20060;-70
2022/08/20 00:43:28;;;;;;;9.43;5.10;;;20.00;80.80;;;;;;5014307;28;20046;-70
2022/08/20 00:45:56;;;;;;;9.18;4.88;;;20.00;80.80;;;;;;4974891;28;20775;-70
2022/08/20 00:48:24;;;;;;;10.27;5.88;;;20.00;80.70;;;;;;4958768;28;20051;-70
2022/08/20 00:50:53;;;;;;;9.80;5.35;;;20.00;80.60;;;;;;4991163;28;20477;-70
2022/08/20 00:53:23;;;;;;;9.73;5.50;;;20.00;80.60;;;;;;4975009;28;20082;-70
2022/08/20 00:55:51;;;;;;;10.00;5.77;;;20.00;80.60;;;;;;4992419;28;20073;-69
2022/08/20 00:58:19;;;;;;;8.18;5.35;;;20.00;80.70;;;;;;4992399;28;20279;-70
2022/08/20 01:00:48;;;;;;;11.02;5.85;;;20.00;80.70;;;;;;4974507;28;20053;-70
2022/08/20 01:03:19;;;;;;;9.88;5.30;;;20.00;80.60;;;;;;4974607;28;20046;-70
2022/08/20 01:05:49;;;;;;;9.45;5.68;;;19.90;80.60;;;;;;4992272;28;20051;-70
2022/08/20 01:08:19;;;;;;;9.47;5.70;;;19.90;80.60;;;;;;4992198;28;20138;-70
2022/08/20 01:10:48;;;;;;;9.43;5.40;;;19.90;80.50;;;;;;4974501;28;20310;-70
2022/08/20 01:13:20;;;;;;;8.68;5.35;;;19.90;80.50;;;;;;4975026;28;20055;-70
2022/08/20 01:15:51;;;;;;;10.02;5.45;;;19.90;80.60;;;;;;4992574;28;20055;-70
2022/08/20 01:18:23;;;;;;;9.35;5.57;;;19.90;80.60;;;;;;4974269;28;20053;-70
2022/08/20 01:20:54;;;;;;;12.73;5.50;;;19.90;80.50;;;;;;4974289;28;20053;-70
2022/08/20 01:23:29;;;;;;;9.98;5.28;;;19.90;80.40;;;;;;4974530;28;20386;-70
2022/08/20 01:26:02;;;;;;;9.20;6.18;;;19.90;80.30;;;;;;4991742;28;20062;-70
2022/08/20 01:28:35;;;;;;;9.95;5.55;;;19.90;80.40;;;;;;4991732;28;20081;-70
2022/08/20 01:31:03;;;;;;;11.07;5.85;;;19.90;80.40;;;;;;4991388;28;20058;-70
2022/08/20 01:33:30;;;;;;;11.07;5.90;;;19.80;80.50;;;;;;4974541;28;20046;-70
2022/08/20 01:35:59;;;;;;;14.10;5.95;;;19.70;80.60;;;;;;4974253;28;20282;-70
2022/08/20 01:38:26;;;;;;;8.48;5.43;;;19.70;80.60;;;;;;4991634;28;20058;-70
2022/08/20 01:41:10;;;;;;;9.07;5.85;;;19.70;80.70;;;;;;4973759;28;20053;-70
2022/08/20 01:43:40;;;;;;;11.85;5.47;;;19.60;81.10;;;;;;4995944;28;20564;-70
2022/08/20 01:46:08;;;;;;;11.23;5.40;;;19.60;81.20;;;;;;5031317;28;20189;-70
2022/08/20 01:48:36;;;;;;;8.13;5.57;;;19.50;81.40;;;;;;5031034;28;20273;-70
2022/08/20 01:51:07;;;;;;;10.30;5.93;;;19.50;81.50;;;;;;5030695;28;20064;-70
2022/08/20 01:53:37;;;;;;;10.00;5.30;;;19.50;81.30;;;;;;5013657;28;20053;-70
2022/08/20 01:56:08;;;;;;;10.25;5.15;;;19.50;81.50;;;;;;5012958;28;20471;-70
2022/08/20 01:58:39;;;;;;;11.57;5.87;;;19.40;81.60;;;;;;5031059;28;20089;-70
2022/08/20 02:01:06;;;;;;;10.07;5.40;;;19.40;81.50;;;;;;5030285;28;20254;-70
2022/08/20 02:03:33;;;;;;;10.65;6.00;;;19.40;81.50;;;;;;5030992;28;20428;-70
2022/08/20 02:06:02;;;;;;;10.52;5.38;;;19.30;81.60;;;;;;5030554;28;20064;-70
2022/08/20 02:08:31;;;;;;;11.30;5.72;;;19.40;81.70;;;;;;5012466;28;20539;-70
2022/08/20 02:10:58;;;;;;;10.37;5.47;;;19.30;81.60;;;;;;5030597;28;20049;-70
2022/08/20 02:13:27;;;;;;;10.40;5.32;;;19.30;81.50;;;;;;5012972;28;20254;-70
2022/08/20 02:15:54;;;;;;;8.60;5.15;;;19.30;81.70;;;;;;5012643;28;20049;-70
2022/08/20 02:18:21;;;;;;;11.18;5.55;;;19.30;81.70;;;;;;5030665;28;20101;-70
2022/08/20 02:20:50;;;;;;;10.25;5.53;;;19.30;81.50;;;;;;5030018;28;20533;-70
2022/08/20 02:23:17;;;;;;;9.60;5.70;;;19.30;81.60;;;;;;5030975;28;20054;-70
2022/08/20 02:25:47;;;;;;;8.52;5.35;;;19.30;81.50;;;;;;5012866;28;20353;-69
2022/08/20 02:28:18;;;;;;;9.13;5.53;;;19.40;81.40;;;;;;5012752;28;20050;-70
2022/08/20 02:30:49;;;;;;;11.32;5.25;;;19.40;81.40;;;;;;5030175;28;20085;-70
2022/08/20 02:33:20;;;;;;;9.43;4.97;;;19.40;81.40;;;;;;5012890;28;20183;-70
2022/08/20 02:35:49;;;;;;;9.03;5.50;;;19.40;81.40;;;;;;5012855;28;20153;-70
2022/08/20 02:38:16;;;;;;;9.93;5.60;;;19.30;81.50;;;;;;5012536;28;20279;-70
2022/08/20 02:40:47;;;;;;;9.18;5.15;;;19.30;81.50;;;;;;4996034;28;20105;-70
2022/08/20 02:43:17;;;;;;;11.15;5.80;;;19.30;81.70;;;;;;5012598;28;20057;-70
2022/08/20 02:45:46;;;;;;;10.35;5.40;;;19.20;81.70;;;;;;5010953;28;20046;-70
2022/08/20 02:48:19;;;;;;;12.47;6.30;;;19.20;81.70;;;;;;5010586;28;20061;-70
2022/08/20 02:50:49;;;;;;;10.20;5.93;;;19.20;81.80;;;;;;4992720;28;20242;-70
2022/08/20 02:53:16;;;;;;;12.95;6.03;;;19.10;81.90;;;;;;4993255;28;20167;-70
2022/08/20 02:55:44;;;;;;;9.85;5.55;;;19.10;82.10;;;;;;5009776;28;20046;-70
2022/08/20 02:58:11;;;;;;;10.30;5.82;;;19.00;82.00;;;;;;4993114;28;20059;-70
2022/08/20 03:00:38;;;;;;;10.97;6.47;;;19.00;82.10;;;;;;5010092;28;20054;-70
2022/08/20 03:03:08;;;;;;;11.80;5.72;;;19.00;82.40;;;;;;4993053;28;21038;-70
2022/08/20 03:05:36;;;;;;;10.60;6.30;;;18.90;82.40;;;;;;5010320;28;20133;-70
2022/08/20 03:08:04;;;;;;;11.75;6.00;;;18.90;82.60;;;;;;4992227;28;20057;-70
2022/08/20 03:10:33;;;;;;;12.10;6.60;;;18.80;82.70;;;;;;4992473;28;20058;-70
2022/08/20 03:13:01;;;;;;;10.27;6.23;;;18.80;82.60;;;;;;4993167;28;20133;-70
2022/08/20 03:15:29;;;;;;;11.45;5.72;;;18.80;82.70;;;;;;4996127;28;20636;-70
2022/08/20 03:17:56;;;;;;;10.05;5.82;;;18.80;82.70;;;;;;4998216;28;20758;-70
2022/08/20 03:20:26;;;;;;;11.68;6.10;;;18.80;82.60;;;;;;5013240;28;20094;-70
2022/08/20 03:22:55;;;;;;;11.80;6.10;;;18.80;82.50;;;;;;4995765;28;20052;-70
2022/08/20 03:25:22;;;;;;;12.67;6.43;;;18.80;82.60;;;;;;4995828;28;20469;-70
2022/08/20 03:27:49;;;;;;;10.07;6.22;;;18.80;82.60;;;;;;4996088;28;20270;-70
2022/08/20 03:30:18;;;;;;;11.80;5.80;;;18.80;82.60;;;;;;5013050;28;20141;-70
2022/08/20 03:32:45;;;;;;;9.98;5.97;;;18.80;82.60;;;;;;5013294;28;20882;-70
2022/08/20 03:35:14;;;;;;;12.80;6.15;;;18.70;82.50;;;;;;4995366;28;20149;-70
2022/08/20 03:37:43;;;;;;;8.17;5.13;;;18.70;82.60;;;;;;4995836;28;20054;-70
2022/08/20 03:40:15;;;;;;;11.70;5.50;;;18.70;82.60;;;;;;5013012;28;20250;-70
2022/08/20 03:42:42;;;;;;;11.00;5.40;;;18.70;82.70;;;;;;4995479;28;20125;-70
2022/08/20 03:45:11;;;;;;;12.65;5.97;;;18.70;82.60;;;;;;5027526;28;20587;-70
2022/08/20 03:47:38;;;;;;;10.52;5.80;;;18.60;82.70;;;;;;5032467;28;20057;-70
2022/08/20 03:50:08;;;;;;;10.50;5.67;;;18.60;82.80;;;;;;5032729;28;20050;-70
2022/08/20 03:52:35;;;;;;;10.38;5.25;;;18.60;82.80;;;;;;5033080;28;20261;-70
2022/08/20 03:55:04;;;;;;;12.52;5.88;;;18.60;82.60;;;;;;5014157;28;20046;-70
2022/08/20 03:57:31;;;;;;;11.43;5.38;;;18.60;82.50;;;;;;5014331;28;20061;-70
2022/08/20 03:59:57;;;;;;;9.68;5.43;;;18.60;82.40;;;;;;5014601;28;20129;-70
2022/08/20 04:02:26;;;;;;;12.27;5.67;;;18.60;82.40;;;;;;5015034;28;20423;-70
2022/08/20 04:04:54;;;;;;;11.50;4.97;;;18.60;82.30;;;;;;5032507;28;20269;-70
2022/08/20 04:07:25;;;;;;;11.60;5.68;;;18.60;82.20;;;;;;5014944;28;20054;-70
2022/08/20 04:09:53;;;;;;;9.40;5.10;;;18.60;82.20;;;;;;4997720;28;20046;-71
2022/08/20 04:12:22;;;;;;;11.25;5.13;;;18.50;82.30;;;;;;5032453;28;20491;-70
2022/08/20 04:14:49;;;;;;;10.27;5.07;;;18.50;82.30;;;;;;5032177;28;20046;-70
2022/08/20 04:17:20;;;;;;;9.00;5.13;;;18.40;82.30;;;;;;5014640;28;20270;-70
2022/08/20 04:19:47;;;;;;;10.00;5.35;;;18.40;82.50;;;;;;5032111;28;20058;-70
2022/08/20 04:22:14;;;;;;;8.80;5.10;;;18.30;82.60;;;;;;5014337;28;20491;-70
2022/08/20 04:24:41;;;;;;;9.98;5.40;;;18.30;82.60;;;;;;5032076;28;20096;-70
2022/08/20 04:27:09;;;;;;;10.40;4.90;;;18.30;82.70;;;;;;5014540;28;20053;-70
2022/08/20 04:29:41;;;;;;;9.65;5.00;;;18.20;82.60;;;;;;5031643;28;20258;-70
2022/08/20 04:32:08;;;;;;;10.60;5.50;;;18.20;82.70;;;;;;5032633;28;20050;-70
2022/08/20 04:34:37;;;;;;;10.35;5.50;;;18.20;82.60;;;;;;5031414;28;20064;-70
2022/08/20 04:37:04;;;;;;;11.13;5.05;;;18.20;82.50;;;;;;5013979;28;20148;-69
2022/08/20 04:39:31;;;;;;;10.17;5.80;;;18.20;82.50;;;;;;5031880;28;20064;-70
2022/08/20 04:41:58;;;;;;;11.10;4.70;;;18.20;82.40;;;;;;5031828;28;20257;-69
2022/08/20 04:44:25;;;;;;;10.73;4.70;;;18.20;82.30;;;;;;5001942;28;20513;-70
2022/08/20 04:46:53;;;;;;;10.25;4.90;;;18.20;82.20;;;;;;4974613;28;20046;-70
2022/08/20 04:49:25;;;;;;;10.40;4.90;;;18.20;82.10;;;;;;4990594;28;20652;-70
2022/08/20 04:51:53;;;;;;;11.67;5.27;;;18.30;81.80;;;;;;4992494;28;20054;-70
2022/08/20 04:54:20;;;;;;;10.23;4.63;;;18.30;81.70;;;;;;4990547;28;20274;-70
2022/08/20 04:56:48;;;;;;;10.27;4.85;;;18.30;81.60;;;;;;4992580;28;20054;-69
2022/08/20 04:59:15;;;;;;;9.55;4.10;;;18.30;81.30;;;;;;4990421;28;20054;-69
2022/08/20 05:01:42;;;;;;;8.98;4.22;;;18.30;81.10;;;;;;4991100;28;20051;-70
2022/08/20 05:04:10;;;;;;;8.17;4.47;;;18.30;81.10;;;;;;4991008;28;20078;-70
2022/08/20 05:06:37;;;;;;;10.77;4.60;;;18.30;81.10;;;;;;4992196;28;20352;-70
2022/08/20 05:09:04;;;;;;;11.32;4.78;;;18.30;81.00;;;;;;4991988;28;20441;-70
2022/08/20 05:11:31;;;;;;;10.25;4.65;;;18.30;80.90;;;;;;4990676;28;20126;-70
2022/08/20 05:13:58;;;;;;;9.90;4.30;;;18.30;80.70;;;;;;4992306;28;20210;-70
2022/08/20 05:16:25;;;;;;;9.80;4.30;;;18.30;80.60;;;;;;4991103;28;20057;-70
2022/08/20 05:18:52;;;;;;;10.10;4.53;;;18.30;80.50;;;;;;4991561;28;20255;-70
2022/08/20 05:21:21;;;;;;;9.88;4.47;;;18.30;80.50;;;;;;4992690;28;20055;-69
2022/08/20 05:23:48;;;;;;;10.75;4.70;;;18.30;80.60;;;;;;4991450;28;20055;-70
2022/08/20 05:26:18;;;;;;;7.78;4.20;;;18.30;80.50;;;;;;4992122;28;20078;-69
2022/08/20 05:28:45;;;;;;;9.07;4.37;;;18.30;80.60;;;;;;4990579;28;20047;-70
2022/08/20 05:31:14;;;;;;;8.93;4.03;;;18.30;80.60;;;;;;4984869;28;20275;-70
2022/08/20 05:33:41;;;;;;;10.85;4.28;;;18.30;80.50;;;;;;4992008;28;20087;-70
2022/08/20 05:36:08;;;;;;;9.60;4.13;;;18.30;80.40;;;;;;4973083;28;20087;-70
2022/08/20 05:38:36;;;;;;;8.50;3.95;;;18.30;80.40;;;;;;4974157;28;20495;-70
2022/08/20 05:41:04;;;;;;;8.60;3.73;;;18.30;80.50;;;;;;4991648;28;20054;-70
2022/08/20 05:43:32;;;;;;;10.80;4.70;;;18.30;80.40;;;;;;4994265;28;20286;-70
2022/08/20 05:46:01;;;;;;;10.15;4.10;;;18.30;80.30;;;;;;5013170;28;20492;-70
2022/08/20 05:48:28;;;;;;;11.00;4.63;;;18.30;80.20;;;;;;5031027;28;20050;-70
2022/08/20 05:50:55;;;;;;;9.93;4.00;;;18.40;80.10;;;;;;5013099;28;20058;-70
2022/08/20 05:53:24;;;;;;;11.30;4.50;;;18.40;80.10;;;;;;5031047;28;20229;-70
2022/08/20 05:55:53;;;;;;;8.40;4.13;;;18.30;80.10;;;;;;5013275;28;20333;-70
2022/08/20 05:58:23;;;;;;;8.23;3.92;;;18.40;80.10;;;;;;5029646;28;20045;-70
2022/08/20 06:00:52;;;;;;;7.10;4.00;;;18.40;80.20;;;;;;5012895;28;20048;-70
2022/08/20 06:06:05;;;;;;;5.80;2.50;;;18.40;80.20;;;;;;5011185;28;20053;-71
2022/08/20 06:08:33;;;;;;;6.63;3.35;;;18.40;80.20;;;;;;4991216;28;20255;-71
2022/08/20 06:11:01;;;;;;;9.20;3.40;;;18.40;80.40;;;;;;4894741;28;20063;-71
2022/08/20 06:13:28;;;;;;;8.75;3.45;;;18.40;80.40;;;;;;4989514;28;20046;-71
2022/08/20 06:15:55;;;;;;;8.10;3.20;;;18.40;80.30;;;;;;4999517;28;20102;-71
2022/08/20 06:18:23;;;;;;;8.90;3.00;;;18.40;80.60;;;;;;4989910;28;21015;-71
2022/08/20 06:20:50;;;;;;;7.63;2.80;;;18.40;80.90;;;;;;5000094;28;20270;-71
2022/08/20 06:23:17;;;;;;;6.88;2.65;;;18.40;80.90;;;;;;5000788;28;20138;-71
2022/08/20 06:25:45;;;;;;;7.30;3.30;;;18.40;81.00;;;;;;5001318;28;20054;-71
2022/08/20 06:28:14;;;;;;;7.63;2.70;;;18.50;81.00;;;;;;4998180;28;20074;-71
2022/08/20 06:30:41;;;;;;;7.30;2.90;;;18.50;80.90;;;;;;4982574;28;20054;-71
2022/08/20 06:33:08;;;;;;;8.43;2.88;;;18.50;80.70;;;;;;5000651;28;20274;-71
2022/08/20 06:35:36;;;;;;;8.43;2.60;;;18.50;80.60;;;;;;5001868;28;20477;-71
2022/08/20 06:38:04;;;;;;;9.57;3.55;;;18.60;80.40;;;;;;4980292;28;20047;-70
2022/08/20 06:40:32;;;;;;;9.32;3.00;;;18.60;80.30;;;;;;4977830;28;20047;-70
2022/08/20 06:43:00;;;;;;;6.77;2.40;;;18.60;80.40;;;;;;5002423;28;20058;-70
2022/08/20 06:45:31;;;;;;;6.60;2.67;;;18.60;80.20;;;;;;4985574;28;20274;-71
2022/08/20 06:48:01;;;;;;;5.80;2.70;;;18.60;80.20;;;;;;4983384;28;20128;-70
2022/08/20 06:50:32;;;;;;;6.35;2.40;;;18.70;80.10;;;;;;5009923;28;20149;-71
2022/08/20 06:52:59;;;;;;;7.60;3.00;;;18.70;79.80;;;;;;4991370;28;20052;-71
2022/08/20 06:55:28;;;;;;;6.90;2.40;;;18.70;79.70;;;;;;4983240;28;20073;-71
2022/08/20 06:58:00;;;;;;;7.13;2.47;;;18.70;79.70;;;;;;4983803;28;21007;-71
2022/08/20 07:00:31;;;;;;;9.93;2.17;;;18.70;79.70;;;;;;4978100;28;20050;-71
2022/08/20 07:02:59;;;;;;;7.78;2.20;;;18.70;79.60;;;;;;4975807;28;20530;-70
2022/08/20 07:05:28;;;;;;;6.20;2.03;;;18.80;79.00;;;;;;4993558;28;20055;-70
2022/08/20 07:07:55;;;;;;;7.20;2.10;;;18.80;78.80;;;;;;4994129;28;20054;-70
2022/08/20 07:10:24;;;;;;;7.38;2.28;;;18.80;78.60;;;;;;4974220;28;20755;-71
2022/08/20 07:12:51;;;;;;;8.40;1.90;;;18.80;78.20;;;;;;4992007;28;20058;-71
2022/08/20 07:15:21;;;;;;;4.93;1.63;;;18.80;78.20;;;;;;4994040;28;20047;-70
2022/08/20 07:17:55;;;;;;;4.72;1.67;;;18.90;78.20;;;;;;5000309;28;20051;-70
2022/08/20 07:20:22;;;;;;;5.17;1.60;;;18.90;77.20;;;;;;4986082;28;20050;-71
2022/08/20 07:22:49;;;;;;;7.88;1.98;;;18.90;76.80;;;;;;5003979;28;20254;-70
2022/08/20 07:25:19;;;;;;;6.13;1.90;;;18.90;76.60;;;;;;4988537;28;20517;-70
2022/08/20 07:27:47;;;;;;;5.10;1.50;;;18.90;76.70;;;;;;4989413;28;20047;-71
2022/08/20 07:33:03;;;;;;;7.63;1.83;;;18.90;76.90;;;;;;4985580;28;20597;-70
2022/08/20 07:35:30;;;;;;;7.68;1.60;;;18.90;77.00;;;;;;5025952;28;20274;-70
2022/08/20 07:37:57;;;;;;;7.18;1.60;;;18.90;76.70;;;;;;5001639;28;20795;-70
2022/08/20 07:40:27;;;;;;;8.07;1.63;;;19.00;76.60;;;;;;4984550;28;20052;-71
2022/08/20 07:42:54;;;;;;;4.88;1.33;;;19.00;76.60;;;;;;4959595;28;20046;-71
2022/08/20 07:45:21;;;;;;;4.30;1.13;;;19.00;76.50;;;;;;4999250;28;20057;-71
2022/08/20 07:47:51;;;;;;;6.68;1.30;;;19.00;75.40;;;;;;4986304;28;20728;-70
2022/08/20 07:50:22;;;;;;;5.30;1.10;;;19.10;74.90;;;;;;4980051;28;20051;-70
2022/08/20 07:52:52;;;;;;;5.18;1.05;;;19.10;75.20;;;;;;4979649;28;20800;-71
2022/08/20 07:55:19;;;;;;;3.70;0.90;;;19.10;75.00;;;;;;4994613;28;20061;-70
2022/08/20 07:57:48;;;;;;;5.23;1.20;;;19.10;74.60;;;;;;4985855;28;20053;-71
2022/08/20 08:00:18;;;;;;;5.15;0.90;;;19.20;74.10;;;;;;4991634;28;20250;-70
2022/08/20 08:02:45;;;;;;;7.57;1.15;;;19.20;73.40;;;;;;4991894;28;20053;-70
2022/08/20 08:05:12;;;;;;;6.18;1.15;;;19.20;71.90;;;;;;4995532;28;20054;-70
2022/08/20 08:07:41;;;;;;;4.85;1.10;;;19.20;72.90;;;;;;4993927;28;20054;-71
2022/08/20 08:10:11;;;;;;;5.10;1.30;;;19.20;73.00;;;;;;5001199;28;20059;-71
2022/08/20 08:12:41;;;;;;;4.72;1.05;;;19.20;72.90;;;;;;5003601;28;20350;-71
2022/08/20 08:15:15;;;;;;;5.50;1.00;;;19.20;73.20;;;;;;4981229;28;20121;-70
2022/08/20 08:17:44;;;;;;;4.65;1.00;;;19.30;72.80;;;;;;5001599;28;20051;-71
2022/08/20 08:20:12;;;;;;;6.20;1.00;;;19.30;70.20;;;;;;5006886;28;20073;-70
2022/08/20 08:22:41;;;;;;;4.43;1.17;;;19.30;69.80;;;;;;4942165;28;20134;-70
2022/08/20 08:25:10;;;;;;;5.05;0.85;;;19.30;69.60;;;;;;4999757;28;20302;-71
2022/08/20 08:27:37;;;;;;;5.07;0.95;;;19.30;69.50;;;;;;4982713;28;20517;-71
2022/08/20 08:30:05;;;;;;;6.07;1.13;;;19.30;70.20;;;;;;5001794;28;20058;-71
2022/08/20 08:32:32;;;;;;;5.50;1.00;;;19.30;70.50;;;;;;5013436;23;20108;-71
2022/08/20 08:35:03;;;;;;;3.70;1.07;;;19.40;70.80;;;;;;4983320;28;20066;-71
2022/08/20 08:37:30;;;;;;;4.70;0.82;;;19.40;70.80;;;;;;4981813;28;20266;-70
2022/08/20 08:39:58;;;;;;;4.75;1.13;;;19.40;71.10;;;;;;5001194;28;20050;-70
2022/08/20 08:42:34;;;;;;;4.78;0.90;;;19.50;70.90;;;;;;5000962;28;20065;-71
2022/08/20 08:45:03;;;;;;;6.32;1.30;;;19.50;69.40;;;;;;4986667;28;20046;-71
2022/08/20 08:47:36;;;;;;;4.80;0.90;;;19.50;68.80;;;;;;4983999;28;20057;-71
2022/08/20 08:50:05;;;;;;;3.72;0.80;;;19.50;69.20;;;;;;4982809;28;20319;-71
2022/08/20 08:52:35;;;;;;;6.55;1.00;;;19.50;69.50;;;;;;5001008;28;20077;-71
2022/08/20 08:55:07;;;;;;;6.72;1.00;;;19.50;69.70;;;;;;5000425;28;20050;-70
2022/08/20 08:57:37;;;;;;;7.80;1.10;;;19.50;69.10;;;;;;5002013;28;20061;-70
2022/08/20 09:00:09;;;;;;;5.43;1.10;;;19.50;68.30;;;;;;4993801;28;20254;-71
2022/08/20 09:02:37;;;;;;;6.32;1.17;;;19.60;68.70;;;;;;4993007;28;20258;-70
2022/08/20 09:05:14;;;;;;;5.43;1.02;;;19.70;68.80;;;;;;5010102;28;20054;-71
2022/08/20 09:07:44;;;;;;;4.93;0.85;;;19.70;68.70;;;;;;4976619;28;20082;-70
2022/08/20 09:10:12;;;;;;;5.43;1.05;;;19.70;68.70;;;;;;4975444;28;20050;-70
2022/08/20 09:12:39;;;;;;;5.20;1.13;;;19.70;68.20;;;;;;5009733;28;20050;-70
2022/08/20 09:15:07;;;;;;;4.10;0.80;;;19.70;67.60;;;;;;5009971;28;20278;-70
2022/08/20 09:17:34;;;;;;;6.30;1.05;;;19.80;65.80;;;;;;4992829;28;20061;-70
2022/08/20 09:20:01;;;;;;;3.85;0.73;;;19.80;66.60;;;;;;5011509;28;20059;-70
2022/08/20 09:22:27;;;;;;;4.38;1.05;;;19.90;67.20;;;;;;5011778;28;20117;-70
2022/08/20 09:24:55;;;;;;;4.63;1.10;;;19.90;67.50;;;;;;5011423;28;20492;-70
2022/08/20 09:27:23;;;;;;;5.60;1.05;;;19.90;66.40;;;;;;5011295;28;20262;-70
2022/08/20 09:29:52;;;;;;;4.32;1.10;;;20.00;66.20;;;;;;4993659;28;20049;-70
2022/08/20 09:32:21;;;;;;;5.00;0.82;;;20.00;65.00;;;;;;4993505;28;20105;-70
2022/08/20 09:34:54;;;;;;;7.00;1.00;;;20.00;65.00;;;;;;5011602;28;20054;-70
2022/08/20 09:37:23;;;;;;;4.27;0.90;;;20.00;64.40;;;;;;5011950;28;20054;-70
2022/08/20 09:39:50;;;;;;;5.07;1.15;;;20.00;64.20;;;;;;5010897;28;20258;-70
2022/08/20 09:42:20;;;;;;;5.20;1.00;;;20.00;64.60;;;;;;5011623;28;20054;-70
2022/08/20 09:44:49;;;;;;;4.93;0.95;;;20.10;64.80;;;;;;5023283;28;20057;-70
2022/08/20 09:47:17;;;;;;;7.10;1.27;;;20.10;64.90;;;;;;5013267;28;20050;-70
2022/08/20 09:49:44;;;;;;;5.67;1.13;;;20.10;65.50;;;;;;5012968;28;20473;-70
2022/08/20 09:52:18;;;;;;;6.57;0.90;;;20.10;65.80;;;;;;5012424;28;20253;-70
2022/08/20 09:54:45;;;;;;;6.60;0.80;;;20.20;65.60;;;;;;5031138;28;20061;-70
2022/08/20 09:57:12;;;;;;;4.07;0.90;;;20.30;65.00;;;;;;5013388;28;20054;-70
2022/08/20 09:59:39;;;;;;;6.25;0.90;;;20.30;65.20;;;;;;5012658;28;20109;-70
2022/08/20 10:02:07;;;;;;;5.93;1.27;;;20.30;65.20;;;;;;5031066;28;20185;-70
2022/08/20 10:04:34;;;;;;;5.70;1.15;;;20.40;65.10;;;;;;5030704;28;20284;-70
2022/08/20 10:07:01;;;;;;;5.00;1.10;;;20.50;65.30;;;;;;5030874;28;20054;-70
2022/08/20 10:09:28;;;;;;;5.85;1.10;;;20.50;65.70;;;;;;5030561;28;20056;-70
2022/08/20 10:11:55;;;;;;;4.97;0.93;;;20.50;66.30;;;;;;5012920;28;20056;-70
2022/08/20 10:14:22;;;;;;;4.47;1.13;;;20.60;66.30;;;;;;5030367;28;20054;-70
2022/08/20 10:16:55;;;;;;;5.70;1.42;;;20.60;66.20;;;;;;5012009;28;20329;-71
2022/08/20 10:19:25;;;;;;;6.43;1.20;;;20.70;66.30;;;;;;4999245;28;20137;-69
2022/08/20 10:21:52;;;;;;;3.85;0.88;;;20.70;65.80;;;;;;4989541;28;20159;-69
2022/08/20 10:24:20;;;;;;;6.30;1.38;;;20.80;64.10;;;;;;5012828;28;20134;-69
2022/08/20 10:26:48;;;;;;;5.07;1.30;;;20.80;64.40;;;;;;4992973;28;20763;-69
2022/08/20 10:29:16;;;;;;;4.63;1.08;;;20.80;65.20;;;;;;5006797;28;20345;-69
2022/08/20 10:31:43;;;;;;;4.85;1.30;;;20.90;65.80;;;;;;4983140;28;20059;-69
2022/08/20 10:34:11;;;;;;;4.85;1.10;;;20.90;65.40;;;;;;4992706;28;20590;-70
2022/08/20 10:36:41;;;;;;;4.32;0.93;;;21.00;65.30;;;;;;4992444;28;20051;-69
2022/08/20 10:39:08;;;;;;;4.67;0.90;;;21.00;64.90;;;;;;4993199;28;20725;-70
2022/08/20 10:41:35;;;;;;;6.13;1.27;;;21.10;63.50;;;;;;5003298;28;20254;-70
2022/08/20 10:44:03;;;;;;;5.57;1.30;;;21.10;60.50;;;;;;5009045;28;20061;-70
2022/08/20 10:46:30;;;;;;;5.65;1.02;;;21.30;60.00;;;;;;5003922;28;20170;-70
2022/08/20 10:48:57;;;;;;;5.47;1.10;;;21.30;60.30;;;;;;5000099;28;20055;-69
2022/08/20 10:51:24;;;;;;;6.17;1.27;;;21.30;58.50;;;;;;4992514;28;20536;-70
2022/08/20 10:53:53;;;;;;;4.40;1.10;;;21.30;58.80;;;;;;4994390;28;20281;-70
2022/08/20 10:56:19;;;;;;;5.80;1.15;;;21.30;60.00;;;;;;4995056;28;20130;-71
2022/08/20 10:58:46;;;;;;;5.93;1.13;;;21.40;59.80;;;;;;4996124;28;20052;-71
2022/08/20 11:01:13;;;;;;;4.07;0.90;;;21.40;60.40;;;;;;5013831;28;20106;-71
2022/08/20 11:03:40;;;;;;;3.97;1.00;;;21.50;58.90;;;;;;4994027;28;20182;-71
2022/08/20 11:06:07;;;;;;;4.75;1.20;;;21.50;59.80;;;;;;4994680;28;20262;-69
2022/08/20 11:08:34;;;;;;;6.18;1.40;;;21.50;57.80;;;;;;4991898;28;20047;-71
2022/08/20 11:11:03;;;;;;;6.80;1.33;;;21.70;58.30;;;;;;4985447;28;20063;-70
2022/08/20 11:13:30;;;;;;;6.50;1.23;;;21.70;59.10;;;;;;4992156;28;20134;-71
2022/08/20 11:15:57;;;;;;;5.77;1.30;;;21.70;59.00;;;;;;5000030;28;20105;-71
2022/08/20 11:18:24;;;;;;;4.82;1.13;;;21.90;58.90;;;;;;4970122;28;20733;-71
2022/08/20 11:20:51;;;;;;;6.35;1.30;;;21.90;58.80;;;;;;4976322;28;20053;-71
2022/08/20 11:23:18;;;;;;;5.70;1.05;;;21.90;57.30;;;;;;4983423;28;20046;-71
2022/08/20 11:25:45;;;;;;;5.68;1.25;;;22.00;55.90;;;;;;4998806;28;20086;-72
2022/08/20 11:28:14;;;;;;;6.03;1.23;;;22.00;55.50;;;;;;5001390;28;20054;-71
2022/08/20 11:30:41;;;;;;;5.45;1.40;;;22.10;55.50;;;;;;5003482;28;20354;-72
2022/08/20 11:33:08;;;;;;;4.72;1.40;;;22.10;55.30;;;;;;5003836;28;20047;-72
2022/08/20 11:35:36;;;;;;;6.45;1.55;;;22.20;56.10;;;;;;5010127;28;20062;-73
2022/08/20 11:38:04;;;;;;;6.03;1.33;;;22.20;56.60;;;;;;4993237;28;20097;-72
2022/08/20 11:40:31;;;;;;;3.83;1.20;;;22.30;54.70;;;;;;5007548;28;20054;-73
2022/08/20 11:42:58;;;;;;;7.57;1.38;;;22.40;55.20;;;;;;4989146;28;20648;-72
2022/08/20 11:45:26;;;;;;;6.00;1.50;;;22.50;55.60;;;;;;5004006;28;20054;-72
2022/08/20 11:47:53;;;;;;;6.35;1.60;;;22.50;55.00;;;;;;4987971;28;20286;-73
2022/08/20 11:50:21;;;;;;;6.65;1.67;;;22.50;53.00;;;;;;5001384;28;20058;-72
2022/08/20 11:52:48;;;;;;;5.67;1.60;;;22.50;53.10;;;;;;5001177;28;20145;-71
2022/08/20 11:55:16;;;;;;;4.65;1.38;;;22.40;52.70;;;;;;4966701;28;20243;-71
2022/08/20 11:57:45;;;;;;;7.28;1.40;;;22.40;52.70;;;;;;4975385;28;20053;-71
2022/08/20 12:00:16;;;;;;;5.50;1.27;;;22.40;54.10;;;;;;4975218;28;20125;-71
2022/08/20 12:02:44;;;;;;;5.60;1.50;;;22.50;53.90;;;;;;5009165;28;20054;-70
2022/08/20 12:05:12;;;;;;;8.17;1.50;;;22.50;52.90;;;;;;4990964;28;20085;-70
2022/08/20 12:07:39;;;;;;;4.80;1.40;;;22.50;52.60;;;;;;4992201;28;20269;-71
2022/08/20 12:10:08;;;;;;;4.85;1.20;;;22.50;51.90;;;;;;4996380;28;20066;-70
2022/08/20 12:12:37;;;;;;;4.32;1.27;;;22.60;53.00;;;;;;4991401;28;20050;-70
2022/08/20 12:15:05;;;;;;;8.95;1.83;;;22.70;52.70;;;;;;4990358;28;20055;-70
2022/08/20 12:17:32;;;;;;;5.63;1.63;;;22.70;53.70;;;;;;4990161;28;20050;-70
2022/08/20 12:20:05;;;;;;;4.40;1.30;;;22.80;53.10;;;;;;4990857;28;20737;-70
2022/08/20 12:22:32;;;;;;;6.13;1.80;;;22.80;53.20;;;;;;4992992;28;20057;-70
2022/08/20 12:24:59;;;;;;;6.43;1.50;;;22.90;53.20;;;;;;4991097;28;20055;-70
2022/08/20 12:27:27;;;;;;;4.95;1.60;;;22.90;53.90;;;;;;4994569;28;20408;-70
2022/08/20 12:29:56;;;;;;;5.37;1.47;;;23.00;53.70;;;;;;4990980;28;20536;-70
2022/08/20 12:32:27;;;;;;;5.22;1.35;;;23.10;52.10;;;;;;4991494;28;20295;-70
2022/08/20 12:34:55;;;;;;;4.32;1.40;;;23.20;51.80;;;;;;4991723;28;20125;-70
2022/08/20 12:37:25;;;;;;;6.15;1.55;;;23.20;52.30;;;;;;5024550;28;20130;-70
2022/08/20 12:39:54;;;;;;;4.53;1.13;;;23.30;51.40;;;;;;4975115;28;20592;-70
2022/08/20 12:42:22;;;;;;;6.33;1.67;;;23.30;51.00;;;;;;5005967;28;21013;-71
2022/08/20 12:44:49;;;;;;;6.20;1.40;;;23.40;50.20;;;;;;5006043;28;21040;-70
2022/08/20 12:47:18;;;;;;;6.72;1.70;;;23.40;50.50;;;;;;5014273;28;20080;-70
2022/08/20 12:49:47;;;;;;;4.97;1.38;;;23.30;50.60;;;;;;5031825;28;20046;-70
2022/08/20 12:52:16;;;;;;;6.55;1.73;;;23.30;50.50;;;;;;5013961;28;20056;-70
2022/08/20 12:54:44;;;;;;;3.97;1.10;;;23.20;51.00;;;;;;5013902;28;20106;-69